Terminal Aerodrome Forecast
Issued by NWS Wakefield, VA

Home | Current Version | Previous Version | Text Only | Print | Product List | Glossary On
Versions: 1 2 3 4 5 6 7 8 9 10 11 12 13 14 15 16 17 18 19 20
000
FTUS41 KAKQ 021733
TAFORF
TAF
KORF 021733Z 0218/0318 23010KT P6SM SCT030 BKN150
     FM030500 21011KT 6SM -SHRA SCT025 BKN120
     FM030900 21011KT 6SM -SHRA BKN025
     FM031200 22012KT 4SM -SHRA OVC015=

USA.gov is the U.S. government's official web portal to all federal, state and local government web resources and services.